createdAt,value
2023-05-14T00:01:30.902Z,12.38
2023-05-14T00:03:59.238Z,12.47
2023-05-14T00:06:27.452Z,12.55
2023-05-14T00:08:55.684Z,12.54
2023-05-14T00:11:24.139Z,12.55
2023-05-14T00:13:54.069Z,12.54
2023-05-14T00:16:22.356Z,12.49
2023-05-14T00:18:56.032Z,12.60
2023-05-14T00:21:24.849Z,12.64
2023-05-14T00:23:53.516Z,12.63
2023-05-14T00:29:08.681Z,12.36
2023-05-14T00:31:37.162Z,12.41
2023-05-14T00:34:05.393Z,12.56
2023-05-14T00:36:33.635Z,12.53
2023-05-14T00:39:02.025Z,12.62
2023-05-14T00:41:30.417Z,12.56
2023-05-14T00:43:58.492Z,12.40
2023-05-14T00:46:29.833Z,12.26
2023-05-14T00:48:58.801Z,12.34
2023-05-14T00:51:27.336Z,12.26
2023-05-14T00:53:59.141Z,12.37
2023-05-14T00:56:29.323Z,12.36
2023-05-14T00:58:57.517Z,12.48
2023-05-14T01:01:28.663Z,12.36
2023-05-14T01:03:59.521Z,12.23
2023-05-14T01:06:38.088Z,12.21
2023-05-14T01:09:15.556Z,12.25
2023-05-14T01:11:50.214Z,12.35
2023-05-14T01:14:24.291Z,12.37
2023-05-14T01:16:58.374Z,12.47
2023-05-14T01:19:38.789Z,12.42
2023-05-14T01:22:09.419Z,12.42
2023-05-14T01:24:41.201Z,12.40
2023-05-14T01:27:17.572Z,12.42
2023-05-14T01:29:54.995Z,12.38
2023-05-14T01:32:25.849Z,12.46
2023-05-14T01:34:57.039Z,12.42
2023-05-14T01:37:28.564Z,12.48
2023-05-14T01:39:58.389Z,12.45
2023-05-14T01:42:27.460Z,12.36
2023-05-14T01:44:56.227Z,12.28
2023-05-14T01:47:24.837Z,12.15
2023-05-14T01:49:54.045Z,12.29
2023-05-14T01:52:22.434Z,12.34
2023-05-14T01:54:53.287Z,12.24
2023-05-14T01:57:21.800Z,12.32
2023-05-14T01:59:50.294Z,12.29
2023-05-14T02:02:19.112Z,12.26
2023-05-14T02:04:47.361Z,12.12
2023-05-14T02:07:15.825Z,11.99
2023-05-14T02:09:45.583Z,11.88
2023-05-14T02:12:15.499Z,11.85
2023-05-14T02:14:43.563Z,11.91
2023-05-14T02:17:11.794Z,11.86
2023-05-14T02:19:40.344Z,11.94
2023-05-14T02:22:09.108Z,11.85
2023-05-14T02:24:37.510Z,11.72
2023-05-14T02:27:06.399Z,11.57
2023-05-14T02:29:37.212Z,11.64
2023-05-14T02:32:06.380Z,11.73
2023-05-14T02:34:36.198Z,11.70
2023-05-14T02:37:04.492Z,11.75
2023-05-14T02:39:32.629Z,11.84
2023-05-14T02:42:01.213Z,11.74
2023-05-14T02:44:32.172Z,11.72
2023-05-14T02:47:01.746Z,11.72
2023-05-14T02:49:30.145Z,11.72
2023-05-14T02:51:58.410Z,11.72
2023-05-14T02:54:26.522Z,11.74
2023-05-14T02:56:54.751Z,11.81
2023-05-14T02:59:24.489Z,11.83
2023-05-14T03:01:53.557Z,11.75
2023-05-14T03:04:23.751Z,11.74
2023-05-14T03:06:51.895Z,11.80
2023-05-14T03:09:20.050Z,11.73
2023-05-14T03:11:48.302Z,11.80
2023-05-14T03:14:16.562Z,11.77
2023-05-14T03:16:44.719Z,11.87
2023-05-14T03:19:13.576Z,11.82
2023-05-14T03:21:44.588Z,11.76
2023-05-14T03:24:12.625Z,11.88
2023-05-14T03:26:41.262Z,11.89
2023-05-14T03:29:11.254Z,11.83
2023-05-14T03:31:39.534Z,11.83
2023-05-14T03:34:07.684Z,11.80
2023-05-14T03:36:36.585Z,11.87
2023-05-14T03:39:07.204Z,11.84
2023-05-14T03:41:36.251Z,11.96
2023-05-14T03:44:06.532Z,11.98
2023-05-14T03:46:34.647Z,12.07
2023-05-14T03:49:02.880Z,12.07
2023-05-14T03:51:31.908Z,11.87
2023-05-14T03:54:00.133Z,11.69
2023-05-14T03:56:29.534Z,11.53
2023-05-14T03:58:58.508Z,11.51
2023-05-14T04:01:26.953Z,11.43
2023-05-14T04:03:55.565Z,11.45
2023-05-14T04:06:23.750Z,11.28
2023-05-14T04:08:52.063Z,11.30
2023-05-14T04:11:20.214Z,11.30
2023-05-14T04:13:49.714Z,11.31
2023-05-14T04:16:17.997Z,11.34
2023-05-14T04:18:46.420Z,11.69
2023-05-14T04:21:16.058Z,11.88
2023-05-14T04:23:44.175Z,12.10
2023-05-14T04:26:12.450Z,12.18
2023-05-14T04:28:40.670Z,12.45
2023-05-14T04:31:10.258Z,12.35
2023-05-14T04:33:38.494Z,12.28
2023-05-14T04:36:08.448Z,12.57
2023-05-14T04:38:36.912Z,12.79
2023-05-14T04:41:06.176Z,12.91
2023-05-14T04:43:34.383Z,12.89
2023-05-14T04:46:03.582Z,13.03
2023-05-14T04:48:33.697Z,13.22
2023-05-14T04:51:02.626Z,13.17
2023-05-14T04:53:31.977Z,13.15
2023-05-14T04:56:00.975Z,13.35
2023-05-14T04:58:33.812Z,13.31
2023-05-14T05:01:05.240Z,13.32
2023-05-14T05:03:35.568Z,13.49
2023-05-14T05:06:05.071Z,13.59
2023-05-14T05:08:33.381Z,13.70
2023-05-14T05:11:01.882Z,13.77
2023-05-14T05:13:32.821Z,13.92
2023-05-14T05:16:01.141Z,13.90
2023-05-14T05:18:29.935Z,13.92
2023-05-14T05:21:00.508Z,13.86
2023-05-14T05:23:29.425Z,13.51
2023-05-14T05:25:57.925Z,13.54
2023-05-14T05:28:26.325Z,13.78
2023-05-14T05:30:54.746Z,13.45
2023-05-14T05:33:23.099Z,13.55
2023-05-14T05:35:52.799Z,13.60
2023-05-14T05:38:22.631Z,13.71
2023-05-14T05:40:51.032Z,13.83
2023-05-14T05:43:20.182Z,13.83
2023-05-14T05:45:48.896Z,13.96
2023-05-14T05:48:17.176Z,14.03
2023-05-14T05:50:47.603Z,14.10
2023-05-14T05:53:16.983Z,13.90
2023-05-14T05:55:46.583Z,13.85
2023-05-14T05:58:17.440Z,14.00
2023-05-14T06:00:45.913Z,14.09
2023-05-14T06:03:15.078Z,14.10
2023-05-14T06:05:43.756Z,13.95
2023-05-14T06:08:12.790Z,14.03
2023-05-14T06:10:41.048Z,13.99
2023-05-14T06:13:13.885Z,14.03
2023-05-14T06:15:42.148Z,13.96
2023-05-14T06:18:10.435Z,13.89
2023-05-14T06:20:40.293Z,14.05
2023-05-14T06:23:09.393Z,13.93
2023-05-14T06:25:38.316Z,13.93
2023-05-14T06:28:06.793Z,13.89
2023-05-14T06:30:36.757Z,13.89
2023-05-14T06:33:05.659Z,13.89
2023-05-14T06:35:35.199Z,13.86
2023-05-14T06:38:03.799Z,13.88
2023-05-14T06:40:32.206Z,13.88
2023-05-14T06:43:02.324Z,13.93
2023-05-14T06:45:33.253Z,13.79
2023-05-14T06:48:03.158Z,13.56
2023-05-14T06:50:32.134Z,13.48
2023-05-14T06:53:06.192Z,13.45
2023-05-14T06:55:34.266Z,13.31
2023-05-14T06:58:02.548Z,13.34
2023-05-14T07:00:31.623Z,13.35
2023-05-14T07:02:59.967Z,13.28
2023-05-14T07:05:29.813Z,13.23
2023-05-14T07:07:58.270Z,13.18
2023-05-14T07:10:26.605Z,12.95
2023-05-14T07:12:54.790Z,12.76
2023-05-14T07:15:22.747Z,12.62
2023-05-14T07:17:50.873Z,12.47
2023-05-14T07:20:18.944Z,12.35
2023-05-14T07:22:48.930Z,12.31
2023-05-14T07:25:17.457Z,12.19
2023-05-14T07:27:45.518Z,12.10
2023-05-14T07:30:14.091Z,12.02
2023-05-14T07:32:43.316Z,11.97
2023-05-14T07:35:12.777Z,11.88
2023-05-14T07:37:41.196Z,11.83
2023-05-14T07:40:12.127Z,11.97
2023-05-14T07:42:43.315Z,12.00
2023-05-14T07:45:12.369Z,12.19
2023-05-14T07:47:40.902Z,12.37
2023-05-14T07:50:10.017Z,12.50
2023-05-14T07:52:38.209Z,12.39
2023-05-14T07:55:07.405Z,12.24
2023-05-14T07:57:37.666Z,12.11
2023-05-14T08:00:08.144Z,12.09
2023-05-14T08:02:36.558Z,12.02
2023-05-14T08:05:05.288Z,12.00
2023-05-14T08:07:34.534Z,11.83
2023-05-14T08:10:02.707Z,11.71
2023-05-14T08:12:30.878Z,11.64
2023-05-14T08:15:00.334Z,11.58
2023-05-14T08:17:28.769Z,11.64
2023-05-14T08:19:57.915Z,11.75
2023-05-14T08:22:26.768Z,11.87
2023-05-14T08:24:57.897Z,11.90
2023-05-14T08:27:29.336Z,11.76
2023-05-14T08:29:57.732Z,11.68
2023-05-14T08:32:27.472Z,11.57
2023-05-14T08:34:55.699Z,11.51
2023-05-14T08:37:23.773Z,11.42
2023-05-14T08:39:52.490Z,11.33
2023-05-14T08:42:23.137Z,11.26
2023-05-14T08:44:59.112Z,11.13
2023-05-14T08:47:30.380Z,11.09
2023-05-14T08:50:04.592Z,10.97
2023-05-14T08:52:38.435Z,10.92
2023-05-14T08:55:11.359Z,10.97
2023-05-14T08:57:40.250Z,10.99
2023-05-14T09:00:11.783Z,10.91
2023-05-14T09:02:45.738Z,10.86
2023-05-14T09:05:14.575Z,10.92
2023-05-14T09:07:43.141Z,10.99
2023-05-14T09:10:12.341Z,11.11
2023-05-14T09:12:40.805Z,11.34
2023-05-14T09:15:09.797Z,11.50
2023-05-14T09:17:38.135Z,11.51
2023-05-14T09:20:10.276Z,11.65
2023-05-14T09:22:40.532Z,11.86
2023-05-14T09:25:12.557Z,11.81
2023-05-14T09:27:40.993Z,11.77
2023-05-14T09:30:12.083Z,11.94
2023-05-14T09:32:44.219Z,11.83
2023-05-14T09:35:19.439Z,11.77
2023-05-14T09:37:49.140Z,11.71
2023-05-14T09:40:19.900Z,11.68
2023-05-14T09:42:49.388Z,11.67
2023-05-14T09:45:18.109Z,11.76
2023-05-14T09:47:46.927Z,11.65
2023-05-14T09:50:17.185Z,11.51
2023-05-14T09:52:46.056Z,11.51
2023-05-14T09:55:15.656Z,11.55
2023-05-14T09:57:44.102Z,11.59
2023-05-14T10:00:13.677Z,11.62
2023-05-14T10:02:44.335Z,11.68
2023-05-14T10:05:16.077Z,11.61
2023-05-14T10:07:50.229Z,11.73
2023-05-14T10:10:21.480Z,11.87
2023-05-14T10:12:54.202Z,11.96
2023-05-14T10:15:28.400Z,12.03
2023-05-14T10:18:00.186Z,12.11
2023-05-14T10:20:30.185Z,12.24
2023-05-14T10:23:00.773Z,12.35
2023-05-14T10:25:31.337Z,12.14
2023-05-14T10:28:04.883Z,12.12
2023-05-14T10:30:33.876Z,12.05
2023-05-14T10:33:10.228Z,11.83
2023-05-14T10:35:59.687Z,11.68
2023-05-14T10:38:30.810Z,11.65
2023-05-14T10:41:04.032Z,11.62
2023-05-14T10:43:38.703Z,11.61
2023-05-14T10:46:08.559Z,11.59
2023-05-14T10:48:38.683Z,11.63
2023-05-14T10:51:10.206Z,11.87
2023-05-14T10:53:41.777Z,12.01
2023-05-14T10:56:15.818Z,12.11
2023-05-14T10:58:46.139Z,12.12
2023-05-14T11:01:15.696Z,12.39
2023-05-14T11:03:46.510Z,12.71
2023-05-14T11:06:17.826Z,12.90
2023-05-14T11:08:47.634Z,13.05
2023-05-14T11:11:20.045Z,12.75
2023-05-14T11:13:49.294Z,12.86
2023-05-14T11:16:23.415Z,12.80
2023-05-14T11:19:03.645Z,13.00
2023-05-14T11:21:34.068Z,12.92
2023-05-14T11:24:06.184Z,13.02
2023-05-14T11:26:35.830Z,13.47
2023-05-14T11:29:06.094Z,13.56
2023-05-14T11:31:34.778Z,13.35
2023-05-14T11:34:10.067Z,13.22
2023-05-14T11:36:42.352Z,12.90
2023-05-14T11:39:19.459Z,13.20
2023-05-14T11:41:48.071Z,13.56
2023-05-14T11:44:18.908Z,14.00
2023-05-14T11:46:56.336Z,14.10
2023-05-14T11:49:25.041Z,13.95
2023-05-14T11:51:59.307Z,13.60
2023-05-14T11:54:30.620Z,13.78
2023-05-14T11:57:01.968Z,14.05
2023-05-14T11:59:32.893Z,14.13
2023-05-14T12:02:01.423Z,14.15
2023-05-14T12:04:31.606Z,14.50
2023-05-14T12:07:01.510Z,14.87
2023-05-14T12:09:31.488Z,14.80
2023-05-14T12:12:09.141Z,14.76
2023-05-14T12:14:43.059Z,14.61
2023-05-14T12:17:17.770Z,14.45
2023-05-14T12:19:46.814Z,14.45
2023-05-14T12:22:19.263Z,14.25
2023-05-14T12:24:59.130Z,14.09
2023-05-14T12:27:28.793Z,14.17
2023-05-14T12:30:13.043Z,14.34
2023-05-14T12:32:49.079Z,14.37
2023-05-14T12:35:17.624Z,14.52
2023-05-14T12:37:45.945Z,14.55
2023-05-14T12:40:16.103Z,14.58
2023-05-14T12:42:46.676Z,14.56
2023-05-14T12:45:15.105Z,14.54
2023-05-14T12:47:43.600Z,14.64
2023-05-14T12:50:12.698Z,14.80
2023-05-14T12:52:41.058Z,15.05
2023-05-14T12:55:10.371Z,15.07
2023-05-14T12:57:40.438Z,15.03
2023-05-14T13:00:13.898Z,15.07
2023-05-14T13:02:43.678Z,14.85
2023-05-14T13:05:12.754Z,14.75
2023-05-14T13:07:41.131Z,14.55
2023-05-14T13:10:10.374Z,14.47
2023-05-14T13:12:39.898Z,14.51
2023-05-14T13:15:09.057Z,14.60
2023-05-14T13:17:37.565Z,14.59
2023-05-14T13:20:06.513Z,14.52
2023-05-14T13:22:34.671Z,14.34
2023-05-14T13:25:02.798Z,14.23
2023-05-14T13:27:30.930Z,14.34
2023-05-14T13:30:01.363Z,14.22
2023-05-14T13:32:29.615Z,13.96
2023-05-14T13:34:57.780Z,14.08
2023-05-14T13:37:26.304Z,14.23
2023-05-14T13:39:54.674Z,14.32
2023-05-14T13:42:23.742Z,14.43
2023-05-14T13:44:52.852Z,14.58
2023-05-14T13:47:22.736Z,14.58
2023-05-14T13:49:51.095Z,14.43
2023-05-14T13:52:19.755Z,14.34
2023-05-14T13:54:48.474Z,14.38
2023-05-14T13:57:16.711Z,14.36
2023-05-14T13:59:45.162Z,14.33
2023-05-14T14:02:13.333Z,14.26
2023-05-14T14:04:43.756Z,14.23
2023-05-14T14:07:12.158Z,14.28
2023-05-14T14:09:43.698Z,14.27
2023-05-14T14:12:12.156Z,14.25
2023-05-14T14:14:40.402Z,14.19
2023-05-14T14:17:09.112Z,14.09
2023-05-14T14:19:37.596Z,14.16
2023-05-14T14:22:07.650Z,14.18
2023-05-14T14:24:35.866Z,14.06
2023-05-14T14:27:04.107Z,13.98
2023-05-14T14:29:32.549Z,13.92
2023-05-14T14:32:01.166Z,13.91
2023-05-14T14:34:29.520Z,13.90
2023-05-14T14:36:57.596Z,13.86
2023-05-14T14:39:27.031Z,13.88
2023-05-14T14:41:55.626Z,13.83
2023-05-14T14:44:25.813Z,13.86
2023-05-14T14:46:57.112Z,13.83
2023-05-14T14:49:25.300Z,13.80
2023-05-14T14:51:54.357Z,13.91
2023-05-14T14:54:25.833Z,13.81
2023-05-14T14:56:57.994Z,13.86
2023-05-14T14:59:26.341Z,13.86
2023-05-14T15:01:54.612Z,13.87
2023-05-14T15:04:22.742Z,13.78
2023-05-14T15:06:50.847Z,13.68
2023-05-14T15:09:19.070Z,13.71
2023-05-14T15:11:47.282Z,13.64
2023-05-14T15:14:17.018Z,13.54
2023-05-14T15:16:45.355Z,13.51
2023-05-14T15:19:13.982Z,13.46
2023-05-14T15:21:42.213Z,13.45
2023-05-14T15:24:13.476Z,13.49
2023-05-14T15:26:42.203Z,13.60
2023-05-14T15:29:10.341Z,13.61
2023-05-14T15:31:41.108Z,13.65
2023-05-14T15:34:09.255Z,13.56
2023-05-14T15:36:37.864Z,13.51
2023-05-14T15:39:10.429Z,13.52
2023-05-14T15:41:38.653Z,13.44
2023-05-14T15:44:07.464Z,13.41
2023-05-14T15:46:35.985Z,13.37
2023-05-14T15:49:06.147Z,13.34
2023-05-14T15:51:34.282Z,13.33
2023-05-14T15:54:03.722Z,13.30
2023-05-14T15:56:32.845Z,13.26
2023-05-14T15:59:03.389Z,13.14
2023-05-14T16:01:32.212Z,13.03
2023-05-14T16:04:00.910Z,13.01
2023-05-14T16:06:31.392Z,13.12
2023-05-14T16:09:00.709Z,13.04
2023-05-14T16:11:29.457Z,13.00
2023-05-14T16:13:58.481Z,12.97
2023-05-14T16:16:26.978Z,12.93
2023-05-14T16:18:55.579Z,12.79
2023-05-14T16:21:24.176Z,12.77
2023-05-14T16:23:54.507Z,12.80
2023-05-14T16:26:22.840Z,12.69
2023-05-14T16:28:51.057Z,12.77
2023-05-14T16:31:19.687Z,12.68
2023-05-14T16:33:48.443Z,12.69
2023-05-14T16:36:16.705Z,12.58
2023-05-14T16:39:05.426Z,12.53
2023-05-14T16:41:34.274Z,12.53
2023-05-14T16:44:02.819Z,12.58
2023-05-14T16:46:32.396Z,12.54
2023-05-14T16:49:00.860Z,12.53
2023-05-14T16:51:29.132Z,12.48
2023-05-14T16:53:58.074Z,12.47
2023-05-14T16:56:28.245Z,12.34
2023-05-14T16:58:57.951Z,12.30
2023-05-14T17:01:26.423Z,12.23
2023-05-14T17:03:54.937Z,12.34
2023-05-14T17:06:23.460Z,12.39
2023-05-14T17:08:51.755Z,12.42
2023-05-14T17:11:22.778Z,12.22
2023-05-14T17:13:51.375Z,12.34
2023-05-14T17:16:22.766Z,12.27
2023-05-14T17:18:51.067Z,12.34
2023-05-14T17:21:20.890Z,12.20
2023-05-14T17:23:50.207Z,12.21
2023-05-14T17:26:19.102Z,12.12
2023-05-14T17:28:47.568Z,12.17
2023-05-14T17:31:16.919Z,12.15
2023-05-14T17:33:46.892Z,12.04
2023-05-14T17:36:16.715Z,12.10
2023-05-14T17:38:46.422Z,12.05
2023-05-14T17:41:15.046Z,12.18
2023-05-14T17:43:43.841Z,12.08
2023-05-14T17:46:12.423Z,12.16
2023-05-14T17:48:40.978Z,12.17
2023-05-14T17:51:11.434Z,12.10
2023-05-14T17:53:39.652Z,11.99
2023-05-14T17:56:09.252Z,11.94
2023-05-14T17:58:37.374Z,11.93
2023-05-14T18:01:08.310Z,11.83
2023-05-14T18:03:37.195Z,11.78
2023-05-14T18:06:06.182Z,11.74
2023-05-14T18:08:35.915Z,11.71
2023-05-14T18:11:04.056Z,11.73
2023-05-14T18:13:32.409Z,11.73
2023-05-14T18:16:02.064Z,11.66
2023-05-14T18:18:30.484Z,11.68
2023-05-14T18:20:58.785Z,11.80
2023-05-14T18:23:29.140Z,11.67
2023-05-14T18:26:00.301Z,11.55
2023-05-14T18:28:29.400Z,11.50
2023-05-14T18:30:57.694Z,11.44
2023-05-14T18:33:26.253Z,11.46
2023-05-14T18:35:54.754Z,11.48
2023-05-14T18:38:23.097Z,11.46
2023-05-14T18:40:51.486Z,11.58
2023-05-14T18:43:21.589Z,11.62
2023-05-14T18:46:00.418Z,11.57
2023-05-14T18:48:29.404Z,11.54
2023-05-14T18:50:57.659Z,11.55
2023-05-14T18:53:27.624Z,11.63
2023-05-14T18:55:56.137Z,11.59
2023-05-14T18:58:25.852Z,11.62
2023-05-14T19:00:54.218Z,11.68
2023-05-14T19:03:23.232Z,11.71
2023-05-14T19:05:51.933Z,11.60
2023-05-14T19:08:22.080Z,11.53
2023-05-14T19:10:51.131Z,11.61
2023-05-14T19:13:19.555Z,11.60
2023-05-14T19:15:49.004Z,11.56
2023-05-14T19:18:17.778Z,11.57
2023-05-14T19:20:47.129Z,11.61
2023-05-14T19:23:15.747Z,11.68
2023-05-14T19:25:43.993Z,11.59
2023-05-14T19:28:12.344Z,11.50
2023-05-14T19:30:40.700Z,11.49
2023-05-14T19:33:10.769Z,11.47
2023-05-14T19:35:39.102Z,11.55
2023-05-14T19:38:07.269Z,11.45
2023-05-14T19:40:35.482Z,11.43
2023-05-14T19:43:04.163Z,11.42
2023-05-14T19:45:32.784Z,11.47
2023-05-14T19:48:01.307Z,11.49
2023-05-14T19:50:32.459Z,11.55
2023-05-14T19:53:01.046Z,11.51
2023-05-14T19:55:29.610Z,11.46
2023-05-14T19:57:57.864Z,11.47
2023-05-14T20:00:27.089Z,11.46
2023-05-14T20:02:59.703Z,11.40
2023-05-14T20:05:30.693Z,11.38
2023-05-14T20:07:58.936Z,11.36
2023-05-14T20:10:27.722Z,11.33
2023-05-14T20:12:56.263Z,11.36
2023-05-14T20:15:25.967Z,11.29
2023-05-14T20:17:54.978Z,11.29
2023-05-14T20:20:24.274Z,11.41
2023-05-14T20:22:54.846Z,11.37
2023-05-14T20:25:23.218Z,11.33
2023-05-14T20:27:52.636Z,11.30
2023-05-14T20:30:21.181Z,11.33
2023-05-14T20:32:49.309Z,11.33
2023-05-14T20:35:18.836Z,11.33
2023-05-14T20:37:47.316Z,11.32
2023-05-14T20:40:17.138Z,11.29
2023-05-14T20:42:45.318Z,11.30
2023-05-14T20:45:13.824Z,11.24
2023-05-14T20:47:42.581Z,11.22
2023-05-14T20:50:10.923Z,11.31
2023-05-14T20:52:39.001Z,11.36
2023-05-14T20:55:13.718Z,11.37
2023-05-14T20:57:43.802Z,11.31
2023-05-14T21:00:13.698Z,11.27
2023-05-14T21:02:43.008Z,11.24
2023-05-14T21:05:13.965Z,11.25
2023-05-14T21:07:42.207Z,11.28
2023-05-14T21:10:11.583Z,11.29
2023-05-14T21:12:39.740Z,11.32
2023-05-14T21:15:11.027Z,11.29
2023-05-14T21:17:39.959Z,11.28
2023-05-14T21:20:09.412Z,11.26
2023-05-14T21:22:37.531Z,11.26
2023-05-14T21:25:06.338Z,11.23
2023-05-14T21:27:34.915Z,11.24
2023-05-14T21:30:03.033Z,11.25
2023-05-14T21:32:32.703Z,11.26
2023-05-14T21:35:00.843Z,11.26
2023-05-14T21:37:29.221Z,11.28
2023-05-14T21:39:57.340Z,11.31
2023-05-14T21:42:25.537Z,11.39
2023-05-14T21:44:53.867Z,11.44
2023-05-14T21:47:22.310Z,11.48
2023-05-14T21:49:51.781Z,11.46
2023-05-14T21:52:19.923Z,11.49
2023-05-14T21:54:47.994Z,11.52
2023-05-14T21:57:17.914Z,11.56
2023-05-14T21:59:46.182Z,11.56
2023-05-14T22:02:14.388Z,11.55
2023-05-14T22:04:42.528Z,11.54
2023-05-14T22:07:12.267Z,11.57
2023-05-14T22:09:40.398Z,11.59
2023-05-14T22:12:09.229Z,11.59
2023-05-14T22:14:38.321Z,11.60
2023-05-14T22:17:06.641Z,11.59
2023-05-14T22:19:34.779Z,11.56
2023-05-14T22:22:03.459Z,11.53
2023-05-14T22:24:33.057Z,11.53
2023-05-14T22:27:01.126Z,11.57
2023-05-14T22:29:29.289Z,11.55
2023-05-14T22:31:57.511Z,11.56
2023-05-14T22:34:25.784Z,11.55
2023-05-14T22:36:53.941Z,11.60
2023-05-14T22:39:22.088Z,11.60
2023-05-14T22:41:55.201Z,11.57
2023-05-14T22:44:23.538Z,11.58
2023-05-14T22:46:51.869Z,11.58
2023-05-14T22:49:20.105Z,11.57
2023-05-14T22:51:48.234Z,11.60
2023-05-14T22:54:16.705Z,11.58
2023-05-14T22:56:45.777Z,11.59
2023-05-14T22:59:15.507Z,11.53
2023-05-14T23:01:43.662Z,11.50
2023-05-14T23:04:11.770Z,11.49
2023-05-14T23:06:40.084Z,11.49
2023-05-14T23:09:08.136Z,11.51
2023-05-14T23:11:36.337Z,11.54
2023-05-14T23:14:05.169Z,11.54
2023-05-14T23:16:35.372Z,11.51
2023-05-14T23:19:03.804Z,11.53
2023-05-14T23:21:32.670Z,11.56
2023-05-14T23:24:01.332Z,11.56
2023-05-14T23:26:29.535Z,11.57
2023-05-14T23:28:57.640Z,11.54
2023-05-14T23:31:25.877Z,11.54
2023-05-14T23:33:55.466Z,11.50
2023-05-14T23:36:23.946Z,11.53
2023-05-14T23:38:52.801Z,11.55
2023-05-14T23:41:21.820Z,11.63
2023-05-14T23:43:50.046Z,11.61
2023-05-14T23:46:18.322Z,11.58
2023-05-14T23:48:46.541Z,11.63
2023-05-14T23:51:16.055Z,11.56
2023-05-14T23:53:44.171Z,11.52
2023-05-14T23:56:13.005Z,11.50
2023-05-14T23:58:41.146Z,11.47
